Time;durP1;ratioP1;P1;durP2;ratioP2;P2;SDS_P1;SDS_P2;PMS_P1;PMS_P2;Temp;Humidity;BMP_temperature;BMP_pressure;BME280_temperature;BME280_humidity;BME280_pressure;Samples;Min_cycle;Max_cycle;Signal;HPM_P1;HPM_P2
2023/11/26 00:02:05;;;;;;;3.40;0.77;;;0.80;83.90;;;;;;4994280;28;20834;-78
2023/11/26 00:04:32;;;;;;;2.10;0.80;;;0.60;83.70;;;;;;4994528;28;20057;-78
2023/11/26 00:06:58;;;;;;;1.65;0.57;;;0.70;82.80;;;;;;4995332;28;20388;-78
2023/11/26 00:09:23;;;;;;;2.80;0.75;;;0.80;83.30;;;;;;4997170;28;20045;-77
2023/11/26 00:11:50;;;;;;;2.03;0.60;;;0.80;82.80;;;;;;4996678;28;20069;-78
2023/11/26 00:14:16;;;;;;;1.35;0.45;;;0.80;82.90;;;;;;4998339;28;20026;-78
2023/11/26 00:16:41;;;;;;;0.85;0.50;;;0.90;82.60;;;;;;4996107;28;20034;-78
2023/11/26 00:19:07;;;;;;;1.52;0.50;;;0.80;82.40;;;;;;4998512;28;20041;-78
2023/11/26 00:21:33;;;;;;;7.13;0.73;;;0.90;81.00;;;;;;4998828;28;20029;-77
2023/11/26 00:23:59;;;;;;;2.78;0.82;;;0.90;81.80;;;;;;4995919;28;20482;-77
2023/11/26 00:26:29;;;;;;;0.50;0.32;;;0.90;81.50;;;;;;4998070;28;20072;-78
2023/11/26 00:28:54;;;;;;;1.13;0.50;;;0.80;81.50;;;;;;4998749;28;20029;-77
2023/11/26 00:31:20;;;;;;;1.35;0.45;;;0.90;81.50;;;;;;4998017;28;20046;-78
2023/11/26 00:33:48;;;;;;;1.73;0.60;;;0.90;81.50;;;;;;4997686;28;20109;-78
2023/11/26 00:36:18;;;;;;;1.45;0.70;;;0.80;81.80;;;;;;4997909;28;20034;-77
2023/11/26 00:38:44;;;;;;;2.53;0.60;;;0.90;81.20;;;;;;4997717;28;20033;-78
2023/11/26 00:41:10;;;;;;;1.75;0.68;;;1.10;80.40;;;;;;4998144;28;21383;-78
2023/11/26 00:43:36;;;;;;;2.63;0.75;;;1.00;81.00;;;;;;4997421;28;20546;-77
2023/11/26 00:46:02;;;;;;;2.50;0.90;;;1.00;81.10;;;;;;4996330;28;20107;-78
2023/11/26 00:48:28;;;;;;;1.33;0.68;;;1.10;80.60;;;;;;4998402;28;20380;-77
2023/11/26 00:50:54;;;;;;;1.60;0.60;;;1.30;80.40;;;;;;4997535;28;20033;-77
2023/11/26 00:53:20;;;;;;;3.40;1.00;;;1.20;81.50;;;;;;4996133;28;20026;-77
2023/11/26 00:55:46;;;;;;;1.88;0.65;;;1.00;84.50;;;;;;4996450;28;20560;-77
2023/11/26 00:58:12;;;;;;;2.03;0.88;;;0.90;82.20;;;;;;4996708;28;20052;-77
2023/11/26 01:00:38;;;;;;;1.60;0.75;;;0.90;81.30;;;;;;4996444;28;20399;-78
2023/11/26 01:03:04;;;;;;;1.15;0.65;;;1.00;81.90;;;;;;4997059;28;20045;-77
2023/11/26 01:05:30;;;;;;;2.15;0.65;;;1.00;81.90;;;;;;4995712;28;20048;-77
2023/11/26 01:07:56;;;;;;;1.38;0.68;;;0.90;82.00;;;;;;4997330;28;20038;-78
2023/11/26 01:10:21;;;;;;;2.78;0.68;;;0.90;80.80;;;;;;4997577;28;20088;-77
2023/11/26 01:12:47;;;;;;;1.42;0.50;;;0.70;82.60;;;;;;4997361;28;20492;-77
2023/11/26 01:15:14;;;;;;;1.30;0.73;;;0.80;82.40;;;;;;4997014;28;20503;-78
2023/11/26 01:17:40;;;;;;;3.00;0.60;;;0.90;80.90;;;;;;4997414;28;20034;-77
2023/11/26 01:20:09;;;;;;;2.30;0.80;;;0.80;80.70;;;;;;4996270;28;20033;-77
2023/11/26 01:22:35;;;;;;;1.05;0.57;;;0.90;79.50;;;;;;4996602;28;20034;-77
2023/11/26 01:25:00;;;;;;;1.15;0.50;;;0.80;81.70;;;;;;4995649;28;20055;-77
2023/11/26 01:27:26;;;;;;;4.10;0.93;;;1.00;81.60;;;;;;4996282;28;20037;-78
2023/11/26 01:29:52;;;;;;;3.35;0.55;;;1.00;80.50;;;;;;4996281;28;20621;-78
2023/11/26 01:32:17;;;;;;;2.67;0.77;;;1.10;80.80;;;;;;4996924;28;20044;-77
2023/11/26 01:34:43;;;;;;;1.90;0.68;;;1.00;80.70;;;;;;4996293;28;20040;-77
2023/11/26 01:37:09;;;;;;;2.03;0.85;;;1.00;81.30;;;;;;4996288;28;20563;-78
2023/11/26 01:39:35;;;;;;;2.10;0.88;;;1.00;80.10;;;;;;4996425;28;20393;-77
2023/11/26 01:42:01;;;;;;;2.22;0.47;;;1.10;80.20;;;;;;4996109;28;20646;-77
2023/11/26 01:44:26;;;;;;;2.42;0.65;;;0.90;81.20;;;;;;4995676;28;20049;-78
2023/11/26 01:46:54;;;;;;;1.95;0.90;;;0.80;81.10;;;;;;4997446;28;20045;-77
2023/11/26 01:49:20;;;;;;;2.15;0.68;;;0.90;80.30;;;;;;4996899;28;20026;-77
2023/11/26 01:51:47;;;;;;;1.15;0.60;;;1.00;80.30;;;;;;4995865;28;20049;-78
2023/11/26 01:54:13;;;;;;;1.50;0.55;;;1.20;79.50;;;;;;4995139;28;20042;-77
2023/11/26 01:56:39;;;;;;;2.63;0.50;;;1.30;79.60;;;;;;4994668;28;20029;-77
2023/11/26 01:59:05;;;;;;;3.55;1.52;;;1.20;80.50;;;;;;4995860;28;20034;-77
2023/11/26 02:01:32;;;;;;;2.28;0.75;;;1.30;79.70;;;;;;4997436;28;20040;-77
2023/11/26 02:03:58;;;;;;;2.65;0.90;;;1.40;79.50;;;;;;4995728;28;21880;-78
2023/11/26 02:06:25;;;;;;;1.98;0.75;;;1.30;79.90;;;;;;4995391;28;21533;-78
2023/11/26 02:08:50;;;;;;;4.68;1.00;;;1.30;81.30;;;;;;4996938;28;20030;-77
2023/11/26 02:11:16;;;;;;;4.40;1.10;;;1.10;82.80;;;;;;4994247;28;20045;-77
2023/11/26 02:13:46;;;;;;;0.95;0.43;;;1.00;85.70;;;;;;4995612;28;20061;-77
2023/11/26 02:16:13;;;;;;;1.98;0.93;;;0.50;83.90;;;;;;4995075;28;20064;-77
2023/11/26 02:18:39;;;;;;;4.10;0.98;;;0.60;84.10;;;;;;4995398;28;20039;-78
2023/11/26 02:21:07;;;;;;;1.33;0.68;;;0.70;83.50;;;;;;4996969;28;20403;-77
2023/11/26 02:23:37;;;;;;;1.73;0.60;;;0.90;82.90;;;;;;4994674;28;20029;-78
2023/11/26 02:26:09;;;;;;;1.77;0.60;;;0.90;82.60;;;;;;4995155;28;20041;-77
2023/11/26 02:28:35;;;;;;;2.15;0.57;;;0.80;83.10;;;;;;4995049;28;20095;-78
2023/11/26 02:31:01;;;;;;;2.05;0.70;;;0.90;82.60;;;;;;4995979;28;20040;-77
2023/11/26 02:33:27;;;;;;;2.42;0.68;;;1.10;82.30;;;;;;4995177;28;20476;-78
2023/11/26 02:35:52;;;;;;;1.13;0.60;;;1.20;81.80;;;;;;4995260;28;20034;-78
2023/11/26 02:38:18;;;;;;;1.83;0.40;;;1.30;82.20;;;;;;4996163;28;20092;-77
2023/11/26 02:40:44;;;;;;;1.20;0.60;;;1.30;82.70;;;;;;4995348;28;20069;-78
2023/11/26 02:43:10;;;;;;;0.70;0.55;;;1.10;84.00;;;;;;4995031;28;20490;-78
2023/11/26 02:45:35;;;;;;;1.42;0.75;;;1.10;85.00;;;;;;4995956;28;20064;-77
2023/11/26 02:48:01;;;;;;;0.98;0.40;;;1.10;86.40;;;;;;4995052;28;20030;-77
2023/11/26 02:50:28;;;;;;;1.85;0.60;;;0.90;87.00;;;;;;4994071;28;20049;-78
2023/11/26 02:52:53;;;;;;;1.63;0.70;;;0.60;87.00;;;;;;4996657;28;20041;-77
2023/11/26 02:55:19;;;;;;;1.45;0.55;;;0.50;85.80;;;;;;4993172;28;20041;-77
2023/11/26 02:57:45;;;;;;;1.42;0.60;;;0.40;87.50;;;;;;4994976;28;20600;-77
2023/11/26 03:00:20;;;;;;;2.15;0.80;;;0.40;88.20;;;;;;4996283;28;20083;-77
2023/11/26 03:02:48;;;;;;;3.03;0.80;;;0.30;88.00;;;;;;4995094;28;20129;-77
2023/11/26 03:05:18;;;;;;;1.40;0.65;;;0.20;88.30;;;;;;4994662;28;20034;-77
2023/11/26 03:07:50;;;;;;;4.35;2.15;;;-0.10;89.30;;;;;;4995214;28;20030;-77
2023/11/26 03:13:12;;;;;;;1.88;0.95;;;0.00;88.40;;;;;;4995438;28;20057;-77
2023/11/26 03:15:39;;;;;;;2.22;0.95;;;0.00;88.20;;;;;;4996658;28;20088;-77
2023/11/26 03:18:10;;;;;;;2.88;0.85;;;0.10;88.50;;;;;;5000776;28;20172;-77
2023/11/26 03:20:36;;;;;;;1.67;0.70;;;0.40;87.00;;;;;;5000519;28;20029;-78
2023/11/26 03:23:04;;;;;;;1.60;0.85;;;0.50;86.20;;;;;;5001016;28;20034;-78
2023/11/26 03:25:31;;;;;;;1.75;0.70;;;0.60;86.10;;;;;;5001878;28;21393;-77
2023/11/26 03:28:00;;;;;;;2.78;0.95;;;0.40;87.40;;;;;;5000495;28;20065;-78
2023/11/26 03:30:26;;;;;;;2.75;0.75;;;0.30;87.30;;;;;;5000079;28;20046;-78
2023/11/26 03:32:56;;;;;;;1.75;0.77;;;0.40;87.00;;;;;;5002192;28;20061;-78
2023/11/26 03:35:21;;;;;;;2.38;0.90;;;0.60;86.10;;;;;;5002032;28;20064;-77
2023/11/26 03:37:48;;;;;;;2.30;0.80;;;0.70;86.50;;;;;;5001171;28;20112;-77
2023/11/26 03:40:14;;;;;;;0.90;0.43;;;0.70;85.50;;;;;;5000430;28;20134;-77
2023/11/26 03:42:39;;;;;;;3.80;0.75;;;0.70;86.30;;;;;;5002107;28;20742;-78
2023/11/26 03:45:08;;;;;;;2.88;0.88;;;0.70;86.20;;;;;;5000703;28;20064;-77
2023/11/26 03:47:34;;;;;;;3.35;1.10;;;0.60;88.10;;;;;;5001054;28;20029;-78
2023/11/26 03:50:03;;;;;;;1.50;0.73;;;0.50;87.00;;;;;;5001656;28;20160;-78
2023/11/26 03:52:29;;;;;;;2.10;0.80;;;0.50;87.60;;;;;;5000799;28;20441;-77
2023/11/26 03:54:54;;;;;;;1.40;0.65;;;0.50;88.20;;;;;;5001355;28;20083;-77
2023/11/26 03:57:20;;;;;;;2.28;0.57;;;0.40;88.50;;;;;;5002167;28;20116;-77
2023/11/26 03:59:46;;;;;;;2.65;0.90;;;0.40;88.00;;;;;;5001087;28;20169;-77
2023/11/26 04:02:12;;;;;;;2.22;0.70;;;0.30;88.70;;;;;;4999335;28;20121;-78
2023/11/26 04:04:38;;;;;;;2.03;0.82;;;0.40;88.10;;;;;;4998467;28;20062;-78
2023/11/26 04:07:04;;;;;;;1.88;0.68;;;0.50;87.60;;;;;;4997277;28;20152;-78
2023/11/26 04:09:29;;;;;;;2.10;0.70;;;0.80;86.10;;;;;;4996793;28;20065;-77
2023/11/26 04:11:58;;;;;;;2.13;0.63;;;0.90;85.70;;;;;;4997716;28;20389;-78
2023/11/26 04:14:28;;;;;;;1.77;0.60;;;0.90;87.30;;;;;;4997157;28;20026;-78
2023/11/26 04:16:54;;;;;;;1.95;0.82;;;0.80;87.80;;;;;;4995819;28;20134;-78
2023/11/26 04:19:20;;;;;;;3.22;0.93;;;0.70;87.70;;;;;;4994912;28;20139;-79
2023/11/26 04:21:46;;;;;;;2.20;0.80;;;0.70;87.50;;;;;;4995698;28;20044;-78
2023/11/26 04:24:13;;;;;;;1.35;0.50;;;0.40;88.00;;;;;;4997037;28;20116;-78
2023/11/26 04:26:39;;;;;;;2.53;1.00;;;0.30;89.40;;;;;;4997390;28;20026;-78
2023/11/26 04:29:05;;;;;;;2.53;0.70;;;0.20;89.40;;;;;;4995892;28;20045;-77
2023/11/26 04:31:31;;;;;;;1.42;0.40;;;0.20;92.00;;;;;;4995461;28;20033;-78
2023/11/26 04:33:57;;;;;;;2.47;0.90;;;0.30;90.10;;;;;;4995310;28;20037;-78
2023/11/26 04:36:23;;;;;;;2.42;0.82;;;0.60;90.20;;;;;;4995344;28;20061;-77
2023/11/26 04:38:49;;;;;;;2.30;0.82;;;0.40;89.70;;;;;;4994639;28;21693;-78
2023/11/26 04:41:16;;;;;;;1.88;0.52;;;0.40;90.00;;;;;;4994071;28;20038;-78
2023/11/26 04:43:41;;;;;;;1.55;0.68;;;0.30;91.40;;;;;;4994721;28;20044;-78
2023/11/26 04:46:07;;;;;;;1.75;0.70;;;0.20;90.30;;;;;;4993907;28;20053;-78
2023/11/26 04:48:33;;;;;;;2.40;0.65;;;0.40;90.00;;;;;;4994093;28;20038;-77
2023/11/26 04:51:00;;;;;;;1.42;0.50;;;0.50;89.40;;;;;;4995112;28;20025;-78
2023/11/26 04:53:27;;;;;;;1.38;0.40;;;0.50;90.50;;;;;;4994372;28;20018;-78
2023/11/26 04:55:53;;;;;;;1.92;0.70;;;0.20;90.40;;;;;;4993946;28;20041;-78
2023/11/26 04:58:18;;;;;;;3.22;1.10;;;0.10;90.20;;;;;;4995097;28;20438;-78
2023/11/26 05:00:45;;;;;;;3.03;0.88;;;0.20;90.10;;;;;;4993634;28;20026;-78
2023/11/26 05:03:11;;;;;;;2.00;0.73;;;0.30;90.40;;;;;;4993745;28;20058;-78
2023/11/26 05:05:37;;;;;;;3.45;0.60;;;0.00;90.90;;;;;;4994903;28;20103;-78
2023/11/26 05:08:04;;;;;;;2.58;1.15;;;0.10;90.60;;;;;;4994038;28;20036;-78
2023/11/26 05:10:31;;;;;;;3.08;0.82;;;0.20;91.30;;;;;;4993873;28;20038;-77
2023/11/26 05:12:57;;;;;;;2.75;0.85;;;0.30;90.70;;;;;;4994016;28;20048;-78
2023/11/26 05:15:22;;;;;;;2.70;0.70;;;0.40;90.20;;;;;;4993517;28;20044;-78
2023/11/26 05:17:49;;;;;;;1.83;0.80;;;0.70;90.10;;;;;;4992993;28;20203;-78
2023/11/26 05:20:15;;;;;;;1.85;0.70;;;0.70;90.80;;;;;;4994211;28;20030;-77
2023/11/26 05:22:41;;;;;;;2.58;0.70;;;0.80;90.90;;;;;;4994930;28;20038;-78
2023/11/26 05:25:07;;;;;;;1.42;0.68;;;0.90;90.40;;;;;;4992879;28;20751;-78
2023/11/26 05:27:33;;;;;;;1.35;0.65;;;0.80;90.40;;;;;;4993674;28;20026;-78
2023/11/26 05:30:01;;;;;;;2.00;0.90;;;0.80;90.30;;;;;;4994353;28;20037;-78
2023/11/26 05:32:28;;;;;;;2.63;1.05;;;0.90;90.00;;;;;;4991500;28;20373;-78
2023/11/26 05:34:58;;;;;;;2.03;0.68;;;0.90;88.70;;;;;;4991316;28;20077;-78
2023/11/26 05:37:23;;;;;;;1.50;0.95;;;0.90;88.80;;;;;;4993803;28;20030;-78
2023/11/26 05:39:49;;;;;;;1.80;0.90;;;0.70;88.30;;;;;;4993438;28;20036;-78
2023/11/26 05:42:15;;;;;;;1.63;0.70;;;0.80;89.70;;;;;;4993245;28;20649;-78
2023/11/26 05:44:41;;;;;;;3.40;0.73;;;0.80;90.80;;;;;;4992174;28;20587;-78
2023/11/26 05:47:06;;;;;;;2.55;0.88;;;0.80;90.40;;;;;;4993205;28;20454;-78
2023/11/26 05:49:32;;;;;;;1.30;0.68;;;0.80;90.40;;;;;;4991830;28;20028;-78
2023/11/26 05:51:58;;;;;;;1.58;0.70;;;0.90;89.10;;;;;;4992956;28;20097;-78
2023/11/26 05:54:24;;;;;;;4.28;1.30;;;0.90;88.40;;;;;;4994490;28;20109;-78
2023/11/26 05:56:50;;;;;;;2.10;1.00;;;0.80;89.70;;;;;;4993298;28;20034;-78
2023/11/26 05:59:16;;;;;;;2.60;0.90;;;0.80;88.90;;;;;;4992991;28;20512;-78
2023/11/26 06:01:44;;;;;;;2.05;0.93;;;0.70;90.40;;;;;;4991752;28;20713;-78
2023/11/26 06:04:10;;;;;;;2.15;0.90;;;0.80;90.40;;;;;;4991197;28;20087;-78
2023/11/26 06:06:35;;;;;;;2.60;1.17;;;0.50;90.60;;;;;;4991141;28;20033;-80
2023/11/26 06:09:01;;;;;;;2.05;0.77;;;0.50;90.40;;;;;;4991596;28;20526;-80
2023/11/26 06:11:27;;;;;;;7.03;2.90;;;0.60;90.20;;;;;;4993186;28;20784;-79
2023/11/26 06:13:52;;;;;;;6.32;2.60;;;0.30;90.60;;;;;;4994534;28;20671;-78
2023/11/26 06:16:18;;;;;;;15.55;8.43;;;0.40;91.90;;;;;;4993086;28;20542;-78
2023/11/26 06:18:43;;;;;;;11.03;5.77;;;0.30;91.30;;;;;;4992450;28;20670;-78
2023/11/26 06:21:09;;;;;;;4.78;2.03;;;0.30;91.50;;;;;;4994409;28;20030;-78
2023/11/26 06:23:35;;;;;;;4.07;1.45;;;0.20;93.00;;;;;;4992959;28;20156;-78
2023/11/26 06:26:00;;;;;;;2.83;1.02;;;0.30;92.60;;;;;;4992538;28;20100;-78
2023/11/26 06:28:26;;;;;;;3.65;1.20;;;0.20;92.30;;;;;;4994390;28;20064;-78
2023/11/26 06:30:52;;;;;;;3.40;1.33;;;0.40;91.50;;;;;;4989849;28;20041;-78
2023/11/26 06:33:18;;;;;;;4.25;1.25;;;0.40;90.80;;;;;;4989643;28;22028;-78
2023/11/26 06:35:43;;;;;;;3.10;1.20;;;0.30;90.70;;;;;;4991735;28;20061;-78
2023/11/26 06:38:10;;;;;;;2.10;0.90;;;0.30;90.60;;;;;;4990073;28;20622;-78
2023/11/26 06:40:37;;;;;;;3.45;1.40;;;0.40;91.20;;;;;;4990679;28;20049;-78
2023/11/26 06:43:03;;;;;;;2.78;0.77;;;0.70;90.70;;;;;;4993895;28;20087;-78
2023/11/26 06:45:28;;;;;;;1.88;0.93;;;0.70;91.10;;;;;;4992639;28;20045;-78
2023/11/26 06:47:54;;;;;;;4.40;2.53;;;0.80;91.60;;;;;;4990816;28;20069;-78
2023/11/26 06:50:21;;;;;;;4.97;2.00;;;1.00;90.90;;;;;;4990722;28;20735;-78
2023/11/26 06:52:46;;;;;;;2.60;1.48;;;0.90;92.40;;;;;;4989952;28;20034;-78
2023/11/26 06:55:12;;;;;;;1.90;0.95;;;1.00;92.50;;;;;;4988736;28;20080;-77
2023/11/26 06:57:38;;;;;;;1.10;0.55;;;1.00;92.80;;;;;;4990470;28;20041;-77
2023/11/26 07:00:07;;;;;;;1.17;0.82;;;0.90;93.60;;;;;;4992122;28;20030;-79
2023/11/26 07:02:32;;;;;;;3.33;0.98;;;1.30;91.70;;;;;;4993125;28;20026;-78
2023/11/26 07:04:59;;;;;;;3.42;0.95;;;1.40;91.70;;;;;;4989870;28;20583;-80
2023/11/26 07:07:25;;;;;;;2.03;0.90;;;1.60;91.60;;;;;;4989398;28;20060;-78
2023/11/26 07:09:52;;;;;;;1.48;0.70;;;1.60;92.20;;;;;;4989725;28;20034;-76
2023/11/26 07:12:18;;;;;;;10.88;4.53;;;1.60;92.30;;;;;;4988406;28;20037;-76
2023/11/26 07:14:43;;;;;;;9.80;4.97;;;1.20;92.90;;;;;;4987600;28;20033;-77
2023/11/26 07:17:12;;;;;;;4.20;1.85;;;1.10;94.10;;;;;;4989423;28;20053;-77
2023/11/26 07:19:41;;;;;;;3.17;1.05;;;0.90;95.30;;;;;;4987585;28;20045;-77
2023/11/26 07:22:07;;;;;;;2.50;0.95;;;1.00;95.30;;;;;;4987859;28;20405;-77
2023/11/26 07:24:33;;;;;;;3.42;1.40;;;1.10;94.70;;;;;;4988643;28;20099;-77
2023/11/26 07:26:58;;;;;;;2.45;1.10;;;0.90;94.50;;;;;;4988896;28;20136;-79
2023/11/26 07:29:24;;;;;;;1.95;0.70;;;0.80;94.00;;;;;;4987277;28;20034;-77
2023/11/26 07:31:49;;;;;;;2.20;1.02;;;1.30;94.10;;;;;;4989750;28;20120;-78
2023/11/26 07:34:16;;;;;;;4.32;2.08;;;1.30;94.40;;;;;;4987162;28;21331;-77
2023/11/26 07:36:42;;;;;;;2.83;1.00;;;1.00;93.30;;;;;;4988047;28;20053;-78
2023/11/26 07:39:08;;;;;;;2.10;0.93;;;1.00;92.90;;;;;;4988727;28;20021;-77
2023/11/26 07:41:34;;;;;;;3.22;1.10;;;0.90;94.90;;;;;;4988152;28;20049;-77
2023/11/26 07:44:00;;;;;;;1.77;0.80;;;1.00;95.20;;;;;;4987115;28;20042;-77
2023/11/26 07:46:26;;;;;;;2.35;1.02;;;1.00;94.60;;;;;;4988801;28;20040;-77
2023/11/26 07:48:51;;;;;;;3.25;1.15;;;0.80;93.10;;;;;;4987761;28;20034;-77
2023/11/26 07:51:17;;;;;;;3.85;1.80;;;0.70;92.50;;;;;;4988476;28;20115;-78
2023/11/26 07:53:43;;;;;;;5.47;2.38;;;0.60;92.60;;;;;;4989587;28;20101;-77
2023/11/26 07:56:10;;;;;;;3.55;1.50;;;0.50;92.70;;;;;;4988112;28;20080;-77
2023/11/26 07:58:36;;;;;;;2.15;1.08;;;0.50;92.60;;;;;;4988597;28;21268;-78
2023/11/26 08:01:02;;;;;;;2.92;1.27;;;0.70;94.00;;;;;;4989666;28;20034;-76
2023/11/26 08:03:32;;;;;;;2.10;0.90;;;0.90;93.20;;;;;;4988520;28;20489;-76
2023/11/26 08:05:58;;;;;;;7.43;3.83;;;1.00;92.90;;;;;;4992266;28;20045;-76
2023/11/26 08:08:24;;;;;;;6.57;3.47;;;1.10;92.70;;;;;;4992846;28;20062;-77
2023/11/26 08:10:51;;;;;;;3.10;1.35;;;1.20;92.70;;;;;;4990668;28;20037;-78
2023/11/26 08:13:22;;;;;;;1.50;0.70;;;1.60;92.00;;;;;;4992720;28;20876;-77
2023/11/26 08:15:56;;;;;;;1.92;0.70;;;1.90;92.20;;;;;;4994320;28;20038;-76
2023/11/26 08:18:22;;;;;;;2.58;0.93;;;1.90;92.00;;;;;;4992494;28;20041;-77
2023/11/26 08:20:48;;;;;;;3.13;0.40;;;1.90;92.30;;;;;;4988745;28;20067;-76
2023/11/26 08:23:14;;;;;;;5.40;2.20;;;2.00;92.30;;;;;;4993569;28;20041;-77
2023/11/26 08:25:40;;;;;;;4.30;2.17;;;1.60;92.70;;;;;;4991642;28;20046;-76
2023/11/26 08:28:07;;;;;;;5.35;2.17;;;1.50;92.70;;;;;;4992102;28;20471;-76
2023/11/26 08:30:44;;;;;;;2.03;1.17;;;1.40;93.80;;;;;;4990444;28;20096;-76
2023/11/26 08:33:12;;;;;;;0.82;0.38;;;1.20;95.40;;;;;;4997531;28;20061;-76
2023/11/26 08:35:41;;;;;;;1.45;0.50;;;1.70;94.20;;;;;;4997281;28;20029;-78
2023/11/26 08:38:07;;;;;;;1.80;0.60;;;2.00;93.10;;;;;;4996616;28;20568;-76
2023/11/26 08:40:35;;;;;;;1.50;0.75;;;2.20;92.70;;;;;;4996236;28;20057;-75
2023/11/26 08:43:09;;;;;;;1.13;0.40;;;2.00;93.20;;;;;;4996856;28;20034;-76
2023/11/26 08:45:39;;;;;;;1.90;0.65;;;1.80;93.40;;;;;;4997769;28;20037;-77
2023/11/26 08:48:06;;;;;;;0.80;0.30;;;1.80;93.60;;;;;;4998128;28;20026;-75
2023/11/26 08:50:32;;;;;;;7.35;3.65;;;1.70;94.10;;;;;;4997859;28;20038;-76
2023/11/26 08:52:59;;;;;;;3.78;1.30;;;1.80;94.60;;;;;;4997904;28;20033;-76
2023/11/26 08:55:25;;;;;;;2.25;0.63;;;1.80;94.60;;;;;;4998906;28;21233;-75
2023/11/26 08:57:52;;;;;;;3.47;0.50;;;2.40;93.20;;;;;;4998264;28;20048;-74
2023/11/26 09:00:18;;;;;;;1.58;0.80;;;2.60;93.10;;;;;;4997005;28;20034;-74
2023/11/26 09:02:44;;;;;;;1.23;0.40;;;2.60;93.20;;;;;;4997826;28;20021;-74
2023/11/26 09:05:09;;;;;;;2.83;0.82;;;2.40;93.00;;;;;;4997644;28;20048;-75
2023/11/26 09:07:44;;;;;;;1.70;0.70;;;2.40;92.30;;;;;;4997176;28;20085;-75
2023/11/26 09:10:12;;;;;;;4.60;1.42;;;2.40;93.40;;;;;;4997310;28;20034;-75
2023/11/26 09:12:38;;;;;;;1.98;0.88;;;2.40;94.40;;;;;;4997862;28;20030;-75
2023/11/26 09:15:07;;;;;;;2.13;0.77;;;3.00;92.70;;;;;;4997677;28;20546;-74
2023/11/26 09:17:33;;;;;;;1.73;0.70;;;3.50;91.90;;;;;;4998026;28;20033;-75
2023/11/26 09:19:59;;;;;;;0.98;0.50;;;3.70;91.70;;;;;;4997058;28;20079;-74
2023/11/26 09:22:25;;;;;;;1.63;0.60;;;3.50;91.80;;;;;;4997419;28;20487;-74
2023/11/26 09:24:50;;;;;;;1.88;0.90;;;3.20;92.10;;;;;;4996267;28;20053;-75
2023/11/26 09:27:16;;;;;;;2.15;1.25;;;3.00;91.60;;;;;;4997036;28;20037;-75
2023/11/26 09:29:42;;;;;;;2.80;0.70;;;3.10;92.50;;;;;;4995834;28;20025;-75
2023/11/26 09:32:08;;;;;;;3.50;0.50;;;3.10;91.40;;;;;;4997651;28;20034;-75
2023/11/26 09:34:33;;;;;;;0.57;0.20;;;3.30;91.30;;;;;;4997844;28;20083;-76
2023/11/26 09:37:04;;;;;;;0.47;0.30;;;3.50;91.30;;;;;;4998007;28;20057;-76
2023/11/26 09:39:33;;;;;;;0.25;0.13;;;3.70;92.00;;;;;;4996612;28;20030;-79
2023/11/26 09:42:03;;;;;;;0.65;0.20;;;3.90;90.50;;;;;;4997319;28;20118;-78
2023/11/26 09:44:29;;;;;;;3.50;0.40;;;4.00;90.10;;;;;;4996867;28;20484;-76
2023/11/26 09:46:56;;;;;;;1.35;0.47;;;3.90;90.80;;;;;;4996499;28;20038;-75
2023/11/26 09:49:22;;;;;;;1.15;0.50;;;4.00;91.40;;;;;;4997643;28;20701;-74
2023/11/26 09:51:57;;;;;;;1.13;0.35;;;4.30;89.00;;;;;;4997968;28;20029;-74
2023/11/26 09:54:24;;;;;;;0.68;0.20;;;4.30;88.90;;;;;;4997566;28;20038;-74
2023/11/26 09:56:55;;;;;;;3.40;1.55;;;4.20;88.50;;;;;;4996900;28;20037;-74
2023/11/26 09:59:30;;;;;;;6.07;2.22;;;4.10;90.80;;;;;;4995406;28;20084;-75
2023/11/26 10:01:58;;;;;;;2.78;1.00;;;3.80;90.30;;;;;;4996209;28;20059;-75
2023/11/26 10:04:24;;;;;;;1.17;0.52;;;3.80;90.40;;;;;;4995397;28;20416;-75
2023/11/26 10:06:54;;;;;;;0.80;0.30;;;4.40;91.70;;;;;;4993989;28;20168;-74
2023/11/26 10:09:22;;;;;;;0.28;0.20;;;4.50;90.10;;;;;;4993463;28;20628;-74
2023/11/26 10:11:48;;;;;;;1.08;0.20;;;4.80;87.00;;;;;;4990634;28;20057;-75
2023/11/26 10:14:15;;;;;;;0.77;0.30;;;4.70;87.90;;;;;;4990000;28;20164;-76
2023/11/26 10:16:42;;;;;;;2.25;0.30;;;4.90;86.90;;;;;;4991296;28;20037;-75
2023/11/26 10:19:23;;;;;;;0.75;0.25;;;4.70;87.70;;;;;;4992170;28;20435;-76
2023/11/26 10:21:54;;;;;;;0.45;0.17;;;4.70;87.80;;;;;;4993044;28;20093;-76
2023/11/26 10:24:22;;;;;;;0.65;0.17;;;4.80;87.30;;;;;;4993506;28;20614;-74
2023/11/26 10:26:51;;;;;;;0.93;0.45;;;4.90;87.50;;;;;;4994802;28;20036;-75
2023/11/26 10:29:20;;;;;;;0.45;0.20;;;5.10;86.70;;;;;;4994643;28;20037;-74
2023/11/26 10:31:59;;;;;;;2.30;0.90;;;5.40;84.60;;;;;;4995709;28;20451;-75
2023/11/26 10:34:25;;;;;;;6.68;2.85;;;5.40;85.20;;;;;;4996052;28;20037;-75
2023/11/26 10:36:51;;;;;;;5.55;2.50;;;5.60;87.60;;;;;;4996363;28;20072;-75
2023/11/26 10:39:17;;;;;;;8.55;4.43;;;5.50;90.60;;;;;;4994710;28;20065;-75
2023/11/26 10:41:46;;;;;;;15.00;6.72;;;5.50;88.80;;;;;;4995054;28;20057;-75
2023/11/26 10:44:14;;;;;;;15.35;5.78;;;5.60;90.90;;;;;;4994255;28;20099;-74
2023/11/26 10:46:44;;;;;;;14.02;4.90;;;5.30;91.10;;;;;;4995228;28;20125;-75
2023/11/26 10:49:16;;;;;;;13.75;5.63;;;5.60;89.60;;;;;;4996007;28;20034;-75
2023/11/26 10:52:22;;;;;;;9.30;3.70;;;5.70;89.40;;;;;;4995317;28;20036;-74
2023/11/26 10:55:10;;;;;;;5.63;2.38;;;5.70;90.20;;;;;;4990156;28;20366;-74
2023/11/26 10:57:42;;;;;;;6.20;3.33;;;5.90;89.20;;;;;;4994371;28;20030;-74
2023/11/26 11:00:21;;;;;;;6.55;2.92;;;6.20;87.50;;;;;;4994207;28;20622;-74
2023/11/26 11:02:48;;;;;;;7.78;2.72;;;6.20;89.50;;;;;;4996303;28;20096;-75
2023/11/26 11:05:14;;;;;;;7.03;3.10;;;6.20;90.40;;;;;;4995677;28;20080;-75
2023/11/26 11:07:40;;;;;;;5.10;2.95;;;6.40;90.30;;;;;;4995431;28;20030;-74
2023/11/26 11:10:21;;;;;;;5.68;2.60;;;6.20;90.40;;;;;;4995710;28;20034;-75
2023/11/26 11:13:00;;;;;;;7.78;2.65;;;6.40;89.00;;;;;;4996399;28;20034;-74
2023/11/26 11:15:27;;;;;;;7.93;2.65;;;6.90;85.50;;;;;;4995265;28;20050;-74
2023/11/26 11:17:53;;;;;;;4.22;2.97;;;7.20;85.40;;;;;;4995397;28;20053;-74
2023/11/26 11:20:19;;;;;;;0.88;0.55;;;7.30;84.10;;;;;;4997223;28;20416;-76
2023/11/26 11:22:46;;;;;;;1.00;0.52;;;7.60;79.40;;;;;;4996818;28;20034;-75
2023/11/26 11:25:17;;;;;;;0.75;0.40;;;7.80;80.40;;;;;;4992767;28;20042;-77
2023/11/26 11:27:50;;;;;;;2.67;1.15;;;7.80;80.10;;;;;;4993326;28;20029;-77
2023/11/26 11:30:50;;;;;;;5.63;2.30;;;8.00;80.10;;;;;;4991989;28;20993;-74
2023/11/26 11:33:15;;;;;;;4.32;1.23;;;7.80;84.20;;;;;;4991328;28;20073;-74
2023/11/26 11:35:45;;;;;;;3.45;1.00;;;7.90;80.60;;;;;;4993265;28;20552;-75
2023/11/26 11:38:12;;;;;;;3.15;1.23;;;7.90;82.30;;;;;;4993258;28;20053;-76
2023/11/26 11:41:11;;;;;;;1.80;0.45;;;7.90;79.00;;;;;;4995519;28;20642;-74
2023/11/26 11:43:39;;;;;;;1.27;0.55;;;8.20;75.50;;;;;;4997923;28;20021;-76
2023/11/26 11:46:27;;;;;;;0.82;0.50;;;8.70;89.30;;;;;;4995788;28;20129;-75
2023/11/26 11:48:54;;;;;;;1.83;0.63;;;8.60;76.70;;;;;;4993792;28;20534;-80
2023/11/26 11:51:37;;;;;;;0.77;0.40;;;8.70;77.40;;;;;;4991869;28;20710;-75
2023/11/26 11:54:09;;;;;;;1.83;0.73;;;8.70;75.30;;;;;;4992478;28;20581;-75
2023/11/26 11:56:46;;;;;;;4.00;1.00;;;8.70;76.30;;;;;;4991927;28;20022;-77
2023/11/26 11:59:12;;;;;;;3.58;1.38;;;8.50;77.70;;;;;;4991216;28;20041;-74
2023/11/26 12:01:39;;;;;;;2.20;1.08;;;8.40;78.60;;;;;;4993626;28;20092;-74
2023/11/26 12:04:05;;;;;;;1.55;0.70;;;8.50;79.70;;;;;;4991217;28;20064;-75
2023/11/26 12:06:32;;;;;;;3.20;0.70;;;8.70;77.50;;;;;;4990481;28;20038;-76
2023/11/26 12:09:10;;;;;;;2.42;0.40;;;8.80;75.90;;;;;;4991892;28;20105;-75
2023/11/26 12:11:47;;;;;;;0.85;0.30;;;8.80;75.30;;;;;;4994089;28;20115;-74
2023/11/26 12:14:23;;;;;;;1.60;0.22;;;8.70;74.50;;;;;;4995282;28;20044;-75
2023/11/26 12:16:49;;;;;;;1.00;0.32;;;8.90;73.10;;;;;;4995949;28;20037;-74
2023/11/26 12:19:14;;;;;;;1.30;0.40;;;8.90;76.40;;;;;;4994742;28;20030;-74
2023/11/26 12:21:40;;;;;;;3.33;0.60;;;8.90;74.10;;;;;;4996528;28;20045;-74
2023/11/26 12:24:24;;;;;;;0.93;0.40;;;8.90;74.40;;;;;;4994705;28;20038;-75
2023/11/26 12:26:50;;;;;;;1.17;0.40;;;8.80;72.90;;;;;;4994008;28;20121;-74
2023/11/26 12:29:26;;;;;;;1.35;0.40;;;8.90;73.00;;;;;;4994162;28;20025;-73
2023/11/26 12:31:57;;;;;;;1.10;0.38;;;9.10;73.40;;;;;;4995569;28;21024;-73
2023/11/26 12:34:24;;;;;;;1.92;0.40;;;9.10;73.40;;;;;;4996012;28;20041;-74
2023/11/26 12:36:51;;;;;;;2.30;0.60;;;9.00;72.60;;;;;;4993892;28;20045;-73
2023/11/26 12:39:18;;;;;;;1.48;0.60;;;8.90;73.10;;;;;;4995268;28;20484;-74
2023/11/26 12:41:49;;;;;;;0.82;0.30;;;8.90;73.10;;;;;;4995597;28;20053;-74
2023/11/26 12:44:17;;;;;;;1.23;0.32;;;9.00;72.70;;;;;;4995722;28;20038;-74
2023/11/26 12:46:44;;;;;;;0.35;0.28;;;8.90;72.80;;;;;;4995275;28;20033;-74
2023/11/26 12:49:15;;;;;;;1.00;0.40;;;8.90;72.50;;;;;;4992127;28;20439;-74
2023/11/26 12:51:41;;;;;;;0.73;0.20;;;8.80;71.80;;;;;;4994675;28;20072;-74
2023/11/26 12:54:07;;;;;;;3.45;0.80;;;8.90;71.70;;;;;;4995036;28;20026;-74
2023/11/26 12:56:33;;;;;;;1.77;0.40;;;9.10;74.60;;;;;;4993673;28;20037;-75
2023/11/26 12:59:02;;;;;;;1.40;0.45;;;9.00;72.10;;;;;;4994724;28;20064;-75
2023/11/26 13:01:30;;;;;;;1.65;0.60;;;9.00;71.90;;;;;;4995785;28;20069;-74
2023/11/26 13:03:56;;;;;;;1.75;0.40;;;9.10;73.20;;;;;;4993785;28;20050;-75